sensor_id;sensor_type;location;lat;lon;timestamp;temperature;humidity
66608;DHT22;53462;39.616;8.824;2023-03-23T00:01:09;9.50;99.90
66608;DHT22;53462;39.616;8.824;2023-03-23T00:03:36;9.50;99.90
66608;DHT22;53462;39.616;8.824;2023-03-23T00:06:03;9.50;99.90
66608;DHT22;53462;39.616;8.824;2023-03-23T00:08:35;9.60;99.90
66608;DHT22;53462;39.616;8.824;2023-03-23T00:11:19;9.80;99.90
66608;DHT22;53462;39.616;8.824;2023-03-23T00:13:46;9.90;99.90
66608;DHT22;53462;39.616;8.824;2023-03-23T00:16:13;9.70;99.90
66608;DHT22;53462;39.616;8.824;2023-03-23T00:18:47;9.80;99.90
66608;DHT22;53462;39.616;8.824;2023-03-23T00:21:15;9.70;99.90
66608;DHT22;53462;39.616;8.824;2023-03-23T00:23:41;9.70;99.90
66608;DHT22;53462;39.616;8.824;2023-03-23T00:26:11;9.80;99.90
66608;DHT22;53462;39.616;8.824;2023-03-23T00:28:37;9.80;99.90
66608;DHT22;53462;39.616;8.824;2023-03-23T00:31:07;9.80;99.90
66608;DHT22;53462;39.616;8.824;2023-03-23T00:33:36;9.70;99.90
66608;DHT22;53462;39.616;8.824;2023-03-23T00:36:11;9.60;99.90
66608;DHT22;53462;39.616;8.824;2023-03-23T00:38:39;9.60;99.90
66608;DHT22;53462;39.616;8.824;2023-03-23T00:41:06;9.70;99.90
66608;DHT22;53462;39.616;8.824;2023-03-23T00:43:32;9.80;99.90
66608;DHT22;53462;39.616;8.824;2023-03-23T00:46:02;9.90;99.90
66608;DHT22;53462;39.616;8.824;2023-03-23T00:48:35;10.00;99.90
66608;DHT22;53462;39.616;8.824;2023-03-23T00:51:02;10.00;99.90
66608;DHT22;53462;39.616;8.824;2023-03-23T00:53:34;9.90;99.90
66608;DHT22;53462;39.616;8.824;2023-03-23T00:56:00;9.90;99.90
66608;DHT22;53462;39.616;8.824;2023-03-23T00:58:27;10.00;99.90
66608;DHT22;53462;39.616;8.824;2023-03-23T01:00:53;9.90;99.90
66608;DHT22;53462;39.616;8.824;2023-03-23T01:03:19;9.80;99.90
66608;DHT22;53462;39.616;8.824;2023-03-23T01:05:46;9.80;99.90
66608;DHT22;53462;39.616;8.824;2023-03-23T01:08:17;9.70;99.90
66608;DHT22;53462;39.616;8.824;2023-03-23T01:10:45;9.70;99.90
66608;DHT22;53462;39.616;8.824;2023-03-23T01:13:12;9.40;99.90
66608;DHT22;53462;39.616;8.824;2023-03-23T01:15:39;9.30;99.90
66608;DHT22;53462;39.616;8.824;2023-03-23T01:18:05;9.30;99.90
66608;DHT22;53462;39.616;8.824;2023-03-23T01:20:31;9.20;99.90
66608;DHT22;53462;39.616;8.824;2023-03-23T01:22:58;9.20;99.90
66608;DHT22;53462;39.616;8.824;2023-03-23T01:25:31;9.30;99.90
66608;DHT22;53462;39.616;8.824;2023-03-23T01:27:57;9.40;99.90
66608;DHT22;53462;39.616;8.824;2023-03-23T01:30:24;9.40;99.90
66608;DHT22;53462;39.616;8.824;2023-03-23T01:32:51;9.40;99.90
66608;DHT22;53462;39.616;8.824;2023-03-23T01:35:18;9.40;99.90
66608;DHT22;53462;39.616;8.824;2023-03-23T01:37:45;9.20;99.90
66608;DHT22;53462;39.616;8.824;2023-03-23T01:40:14;9.10;99.90
66608;DHT22;53462;39.616;8.824;2023-03-23T01:42:40;9.10;99.90
66608;DHT22;53462;39.616;8.824;2023-03-23T01:45:31;9.10;99.90
66608;DHT22;53462;39.616;8.824;2023-03-23T01:48:04;8.80;99.90
66608;DHT22;53462;39.616;8.824;2023-03-23T01:50:36;8.90;99.90
66608;DHT22;53462;39.616;8.824;2023-03-23T01:53:06;8.90;99.90
66608;DHT22;53462;39.616;8.824;2023-03-23T01:55:38;9.00;99.90
66608;DHT22;53462;39.616;8.824;2023-03-23T01:58:05;9.10;99.90
66608;DHT22;53462;39.616;8.824;2023-03-23T02:00:32;9.10;99.90
66608;DHT22;53462;39.616;8.824;2023-03-23T02:03:00;9.10;99.90
66608;DHT22;53462;39.616;8.824;2023-03-23T02:05:39;9.20;99.90
66608;DHT22;53462;39.616;8.824;2023-03-23T02:08:29;9.10;99.90
66608;DHT22;53462;39.616;8.824;2023-03-23T02:10:59;9.20;99.90
66608;DHT22;53462;39.616;8.824;2023-03-23T02:13:27;9.30;99.90
66608;DHT22;53462;39.616;8.824;2023-03-23T02:16:03;9.30;99.90
66608;DHT22;53462;39.616;8.824;2023-03-23T02:24:42;9.40;99.90
66608;DHT22;53462;39.616;8.824;2023-03-23T02:29:55;9.30;99.90
66608;DHT22;53462;39.616;8.824;2023-03-23T02:35:38;9.20;99.90
66608;DHT22;53462;39.616;8.824;2023-03-23T02:38:14;9.20;99.90
66608;DHT22;53462;39.616;8.824;2023-03-23T02:40:49;9.10;99.90
66608;DHT22;53462;39.616;8.824;2023-03-23T02:43:22;9.00;99.90
66608;DHT22;53462;39.616;8.824;2023-03-23T02:45:50;8.90;99.90
66608;DHT22;53462;39.616;8.824;2023-03-23T02:48:20;8.70;99.90
66608;DHT22;53462;39.616;8.824;2023-03-23T02:50:51;9.00;99.90
66608;DHT22;53462;39.616;8.824;2023-03-23T02:53:21;9.00;99.90
66608;DHT22;53462;39.616;8.824;2023-03-23T02:55:50;9.10;99.90
66608;DHT22;53462;39.616;8.824;2023-03-23T02:58:20;9.10;99.90
66608;DHT22;53462;39.616;8.824;2023-03-23T03:00:51;9.10;99.90
66608;DHT22;53462;39.616;8.824;2023-03-23T03:03:26;9.20;99.90
66608;DHT22;53462;39.616;8.824;2023-03-23T03:11:11;9.30;99.90
66608;DHT22;53462;39.616;8.824;2023-03-23T03:19:10;9.60;99.90
66608;DHT22;53462;39.616;8.824;2023-03-23T03:21:42;9.70;99.90
66608;DHT22;53462;39.616;8.824;2023-03-23T03:24:11;9.80;99.90
66608;DHT22;53462;39.616;8.824;2023-03-23T03:26:46;10.00;99.90
66608;DHT22;53462;39.616;8.824;2023-03-23T03:29:45;9.90;99.90
66608;DHT22;53462;39.616;8.824;2023-03-23T03:32:18;10.00;99.90
66608;DHT22;53462;39.616;8.824;2023-03-23T03:34:45;10.00;99.90
66608;DHT22;53462;39.616;8.824;2023-03-23T03:37:13;10.00;99.90
66608;DHT22;53462;39.616;8.824;2023-03-23T03:39:40;9.90;99.90
66608;DHT22;53462;39.616;8.824;2023-03-23T03:42:06;9.80;99.90
66608;DHT22;53462;39.616;8.824;2023-03-23T03:44:33;9.90;99.90
66608;DHT22;53462;39.616;8.824;2023-03-23T03:46:59;10.00;99.90
66608;DHT22;53462;39.616;8.824;2023-03-23T03:49:26;10.10;99.90
66608;DHT22;53462;39.616;8.824;2023-03-23T03:51:53;10.40;99.90
66608;DHT22;53462;39.616;8.824;2023-03-23T03:54:24;10.50;99.90
66608;DHT22;53462;39.616;8.824;2023-03-23T03:56:51;10.60;99.90
66608;DHT22;53462;39.616;8.824;2023-03-23T03:59:56;10.60;99.90
66608;DHT22;53462;39.616;8.824;2023-03-23T04:02:25;10.70;99.90
66608;DHT22;53462;39.616;8.824;2023-03-23T04:04:52;10.70;99.90
66608;DHT22;53462;39.616;8.824;2023-03-23T04:07:19;10.70;99.90
66608;DHT22;53462;39.616;8.824;2023-03-23T04:09:46;10.70;99.90
66608;DHT22;53462;39.616;8.824;2023-03-23T04:12:15;10.70;99.90
66608;DHT22;53462;39.616;8.824;2023-03-23T04:15:10;10.70;99.90
66608;DHT22;53462;39.616;8.824;2023-03-23T04:17:37;10.70;99.90
66608;DHT22;53462;39.616;8.824;2023-03-23T04:20:05;10.70;99.90
66608;DHT22;53462;39.616;8.824;2023-03-23T04:22:34;10.70;99.90
66608;DHT22;53462;39.616;8.824;2023-03-23T04:25:01;10.70;99.90
66608;DHT22;53462;39.616;8.824;2023-03-23T04:27:33;10.80;99.90
66608;DHT22;53462;39.616;8.824;2023-03-23T04:30:02;10.70;99.90
66608;DHT22;53462;39.616;8.824;2023-03-23T04:32:40;10.70;99.90
66608;DHT22;53462;39.616;8.824;2023-03-23T04:35:09;10.70;99.90
66608;DHT22;53462;39.616;8.824;2023-03-23T04:37:40;10.70;99.90
66608;DHT22;53462;39.616;8.824;2023-03-23T04:40:09;10.80;99.90
66608;DHT22;53462;39.616;8.824;2023-03-23T04:42:42;10.70;99.90
66608;DHT22;53462;39.616;8.824;2023-03-23T04:45:27;10.80;99.90
66608;DHT22;53462;39.616;8.824;2023-03-23T04:47:54;10.80;99.90
66608;DHT22;53462;39.616;8.824;2023-03-23T04:50:28;10.80;99.90
66608;DHT22;53462;39.616;8.824;2023-03-23T04:53:04;10.80;99.90
66608;DHT22;53462;39.616;8.824;2023-03-23T04:55:31;10.80;99.90
66608;DHT22;53462;39.616;8.824;2023-03-23T04:58:03;10.80;99.90
66608;DHT22;53462;39.616;8.824;2023-03-23T05:00:37;10.80;99.90
66608;DHT22;53462;39.616;8.824;2023-03-23T05:03:04;10.80;99.90
66608;DHT22;53462;39.616;8.824;2023-03-23T05:05:31;10.80;99.90
66608;DHT22;53462;39.616;8.824;2023-03-23T05:08:03;10.80;99.90
66608;DHT22;53462;39.616;8.824;2023-03-23T05:10:33;10.70;99.90
66608;DHT22;53462;39.616;8.824;2023-03-23T05:13:05;10.70;99.90
66608;DHT22;53462;39.616;8.824;2023-03-23T05:15:31;10.70;99.90
66608;DHT22;53462;39.616;8.824;2023-03-23T05:17:58;10.70;99.90
66608;DHT22;53462;39.616;8.824;2023-03-23T05:20:24;10.60;99.90
66608;DHT22;53462;39.616;8.824;2023-03-23T05:22:58;10.60;99.90
66608;DHT22;53462;39.616;8.824;2023-03-23T05:25:29;10.70;99.90
66608;DHT22;53462;39.616;8.824;2023-03-23T05:28:03;10.80;99.90
66608;DHT22;53462;39.616;8.824;2023-03-23T05:31:01;10.70;99.90
66608;DHT22;53462;39.616;8.824;2023-03-23T05:33:31;10.70;99.90
66608;DHT22;53462;39.616;8.824;2023-03-23T05:36:08;10.80;99.90
66608;DHT22;53462;39.616;8.824;2023-03-23T05:38:56;10.80;99.90
66608;DHT22;53462;39.616;8.824;2023-03-23T05:41:26;10.80;99.90
66608;DHT22;53462;39.616;8.824;2023-03-23T05:43:52;10.90;99.90
66608;DHT22;53462;39.616;8.824;2023-03-23T05:46:31;10.90;99.90
66608;DHT22;53462;39.616;8.824;2023-03-23T05:48:59;11.00;99.90
66608;DHT22;53462;39.616;8.824;2023-03-23T05:51:31;11.10;99.90
66608;DHT22;53462;39.616;8.824;2023-03-23T05:53:57;11.20;99.90
66608;DHT22;53462;39.616;8.824;2023-03-23T05:56:24;11.30;99.90
66608;DHT22;53462;39.616;8.824;2023-03-23T05:59:10;11.30;99.90
66608;DHT22;53462;39.616;8.824;2023-03-23T06:01:38;11.40;99.90
66608;DHT22;53462;39.616;8.824;2023-03-23T06:04:04;11.40;99.90
66608;DHT22;53462;39.616;8.824;2023-03-23T06:06:40;11.40;99.90
66608;DHT22;53462;39.616;8.824;2023-03-23T06:09:09;11.50;99.90
66608;DHT22;53462;39.616;8.824;2023-03-23T06:11:54;11.50;99.90
66608;DHT22;53462;39.616;8.824;2023-03-23T06:14:29;11.60;99.90
66608;DHT22;53462;39.616;8.824;2023-03-23T06:16:55;11.60;99.90
66608;DHT22;53462;39.616;8.824;2023-03-23T06:19:22;11.60;99.90
66608;DHT22;53462;39.616;8.824;2023-03-23T06:21:57;11.70;99.90
66608;DHT22;53462;39.616;8.824;2023-03-23T06:24:43;11.70;99.90
66608;DHT22;53462;39.616;8.824;2023-03-23T06:27:11;11.70;99.90
66608;DHT22;53462;39.616;8.824;2023-03-23T06:29:37;11.70;99.90
66608;DHT22;53462;39.616;8.824;2023-03-23T06:32:04;11.60;99.90
66608;DHT22;53462;39.616;8.824;2023-03-23T06:34:31;11.60;99.90
66608;DHT22;53462;39.616;8.824;2023-03-23T06:37:24;11.70;99.90
66608;DHT22;53462;39.616;8.824;2023-03-23T06:40:03;11.70;99.90
66608;DHT22;53462;39.616;8.824;2023-03-23T06:42:37;11.80;99.90
66608;DHT22;53462;39.616;8.824;2023-03-23T06:45:21;11.80;99.90
66608;DHT22;53462;39.616;8.824;2023-03-23T06:47:52;11.90;99.90
66608;DHT22;53462;39.616;8.824;2023-03-23T06:50:18;12.00;99.90
66608;DHT22;53462;39.616;8.824;2023-03-23T06:52:46;12.00;99.90
66608;DHT22;53462;39.616;8.824;2023-03-23T06:55:13;12.10;99.90
66608;DHT22;53462;39.616;8.824;2023-03-23T06:57:39;12.10;99.90
66608;DHT22;53462;39.616;8.824;2023-03-23T07:00:06;12.10;99.90
66608;DHT22;53462;39.616;8.824;2023-03-23T07:02:41;12.20;99.90
66608;DHT22;53462;39.616;8.824;2023-03-23T07:05:11;12.10;99.90
66608;DHT22;53462;39.616;8.824;2023-03-23T07:07:38;12.20;99.90
66608;DHT22;53462;39.616;8.824;2023-03-23T07:10:27;12.40;99.90
66608;DHT22;53462;39.616;8.824;2023-03-23T07:12:54;12.60;99.90
66608;DHT22;53462;39.616;8.824;2023-03-23T07:15:21;12.80;99.90
66608;DHT22;53462;39.616;8.824;2023-03-23T07:17:50;13.30;99.90
66608;DHT22;53462;39.616;8.824;2023-03-23T07:20:24;14.10;99.90
66608;DHT22;53462;39.616;8.824;2023-03-23T07:22:50;16.50;99.90
66608;DHT22;53462;39.616;8.824;2023-03-23T07:25:29;17.70;99.10
66608;DHT22;53462;39.616;8.824;2023-03-23T07:28:01;17.00;93.60
66608;DHT22;53462;39.616;8.824;2023-03-23T07:30:28;16.70;95.50
66608;DHT22;53462;39.616;8.824;2023-03-23T07:32:58;16.90;96.00
66608;DHT22;53462;39.616;8.824;2023-03-23T07:35:25;17.40;95.60
66608;DHT22;53462;39.616;8.824;2023-03-23T07:37:59;19.40;86.80
66608;DHT22;53462;39.616;8.824;2023-03-23T07:40:26;20.50;80.70
66608;DHT22;53462;39.616;8.824;2023-03-23T07:42:57;20.70;74.20
66608;DHT22;53462;39.616;8.824;2023-03-23T07:45:43;21.90;69.50
66608;DHT22;53462;39.616;8.824;2023-03-23T07:48:12;23.00;58.80
66608;DHT22;53462;39.616;8.824;2023-03-23T07:50:39;23.10;57.30
66608;DHT22;53462;39.616;8.824;2023-03-23T07:53:08;23.30;56.20
66608;DHT22;53462;39.616;8.824;2023-03-23T07:55:36;23.00;57.00
66608;DHT22;53462;39.616;8.824;2023-03-23T07:58:07;23.10;53.40
66608;DHT22;53462;39.616;8.824;2023-03-23T08:00:34;23.40;55.30
66608;DHT22;53462;39.616;8.824;2023-03-23T08:03:05;24.10;53.40
66608;DHT22;53462;39.616;8.824;2023-03-23T08:05:52;24.30;50.90
66608;DHT22;53462;39.616;8.824;2023-03-23T08:08:37;24.00;52.20
66608;DHT22;53462;39.616;8.824;2023-03-23T08:11:22;24.00;52.50
66608;DHT22;53462;39.616;8.824;2023-03-23T08:14:06;24.70;50.90
66608;DHT22;53462;39.616;8.824;2023-03-23T08:17:04;24.20;49.80
66608;DHT22;53462;39.616;8.824;2023-03-23T08:19:49;24.60;50.80
66608;DHT22;53462;39.616;8.824;2023-03-23T08:22:56;25.80;47.60
66608;DHT22;53462;39.616;8.824;2023-03-23T08:25:45;26.00;46.10
66608;DHT22;53462;39.616;8.824;2023-03-23T08:28:31;26.20;44.80
66608;DHT22;53462;39.616;8.824;2023-03-23T08:31:26;26.10;45.50
66608;DHT22;53462;39.616;8.824;2023-03-23T08:34:25;27.00;43.40
66608;DHT22;53462;39.616;8.824;2023-03-23T08:37:17;26.90;43.70
66608;DHT22;53462;39.616;8.824;2023-03-23T08:40:00;27.20;42.80
66608;DHT22;53462;39.616;8.824;2023-03-23T08:42:39;27.60;42.50
66608;DHT22;53462;39.616;8.824;2023-03-23T08:45:29;27.10;42.60
66608;DHT22;53462;39.616;8.824;2023-03-23T08:48:05;25.90;45.20
66608;DHT22;53462;39.616;8.824;2023-03-23T08:50:51;24.20;47.50
66608;DHT22;53462;39.616;8.824;2023-03-23T08:53:36;21.30;56.10
66608;DHT22;53462;39.616;8.824;2023-03-23T08:56:40;20.20;63.00
66608;DHT22;53462;39.616;8.824;2023-03-23T08:59:24;20.20;64.70
66608;DHT22;53462;39.616;8.824;2023-03-23T09:02:00;19.70;66.20
66608;DHT22;53462;39.616;8.824;2023-03-23T09:04:41;19.20;67.90
66608;DHT22;53462;39.616;8.824;2023-03-23T09:07:28;19.80;67.50
66608;DHT22;53462;39.616;8.824;2023-03-23T09:09:54;19.70;66.90
66608;DHT22;53462;39.616;8.824;2023-03-23T09:12:19;19.40;68.60
66608;DHT22;53462;39.616;8.824;2023-03-23T09:14:45;19.60;67.80
66608;DHT22;53462;39.616;8.824;2023-03-23T09:17:12;19.80;69.10
66608;DHT22;53462;39.616;8.824;2023-03-23T09:19:38;20.30;66.40
66608;DHT22;53462;39.616;8.824;2023-03-23T09:22:04;20.20;66.00
66608;DHT22;53462;39.616;8.824;2023-03-23T09:24:30;20.10;65.80
66608;DHT22;53462;39.616;8.824;2023-03-23T09:26:56;20.60;63.70
66608;DHT22;53462;39.616;8.824;2023-03-23T09:29:25;20.70;63.60
66608;DHT22;53462;39.616;8.824;2023-03-23T09:31:53;20.70;63.10
66608;DHT22;53462;39.616;8.824;2023-03-23T09:34:19;21.10;62.20
66608;DHT22;53462;39.616;8.824;2023-03-23T09:36:45;21.20;62.30
66608;DHT22;53462;39.616;8.824;2023-03-23T09:39:12;21.10;62.30
66608;DHT22;53462;39.616;8.824;2023-03-23T09:48:03;22.40;57.70
66608;DHT22;53462;39.616;8.824;2023-03-23T09:50:12;22.60;56.90
66608;DHT22;53462;39.616;8.824;2023-03-23T09:52:43;22.30;57.70
66608;DHT22;53462;39.616;8.824;2023-03-23T09:55:17;22.20;57.40
66608;DHT22;53462;39.616;8.824;2023-03-23T09:58:07;22.70;56.50
66608;DHT22;53462;39.616;8.824;2023-03-23T10:00:37;22.70;55.40
66608;DHT22;53462;39.616;8.824;2023-03-23T10:03:27;22.20;56.80
66608;DHT22;53462;39.616;8.824;2023-03-23T10:05:53;22.30;57.30
66608;DHT22;53462;39.616;8.824;2023-03-23T10:08:22;22.30;55.90
66608;DHT22;53462;39.616;8.824;2023-03-23T10:11:11;22.40;54.90
66608;DHT22;53462;39.616;8.824;2023-03-23T10:16:15;22.90;53.50
66608;DHT22;53462;39.616;8.824;2023-03-23T10:21:35;23.30;53.40
66608;DHT22;53462;39.616;8.824;2023-03-23T10:24:04;23.80;50.20
66608;DHT22;53462;39.616;8.824;2023-03-23T10:26:46;22.50;51.60
66608;DHT22;53462;39.616;8.824;2023-03-23T10:29:34;22.50;55.40
66608;DHT22;53462;39.616;8.824;2023-03-23T10:34:38;23.80;51.00
66608;DHT22;53462;39.616;8.824;2023-03-23T10:40:17;23.20;50.90
66608;DHT22;53462;39.616;8.824;2023-03-23T10:42:43;23.50;50.30
66608;DHT22;53462;39.616;8.824;2023-03-23T10:45:27;22.60;52.90
66608;DHT22;53462;39.616;8.824;2023-03-23T10:50:30;23.70;49.50
66608;DHT22;53462;39.616;8.824;2023-03-23T10:52:58;23.90;49.50
66608;DHT22;53462;39.616;8.824;2023-03-23T10:55:38;23.70;49.90
66608;DHT22;53462;39.616;8.824;2023-03-23T10:58:09;23.90;50.90
66608;DHT22;53462;39.616;8.824;2023-03-23T11:00:42;24.20;50.10
66608;DHT22;53462;39.616;8.824;2023-03-23T11:05:56;24.60;48.40
66608;DHT22;53462;39.616;8.824;2023-03-23T11:08:25;24.40;48.80
66608;DHT22;53462;39.616;8.824;2023-03-23T11:11:19;23.90;49.40
66608;DHT22;53462;39.616;8.824;2023-03-23T11:13:47;24.10;49.60
66608;DHT22;53462;39.616;8.824;2023-03-23T11:16:34;24.20;49.30
66608;DHT22;53462;39.616;8.824;2023-03-23T11:19:13;24.60;48.70
66608;DHT22;53462;39.616;8.824;2023-03-23T11:21:39;24.60;48.00
66608;DHT22;53462;39.616;8.824;2023-03-23T11:24:07;23.60;49.60
66608;DHT22;53462;39.616;8.824;2023-03-23T11:26:34;24.20;50.20
66608;DHT22;53462;39.616;8.824;2023-03-23T11:29:22;24.70;49.00
66608;DHT22;53462;39.616;8.824;2023-03-23T11:31:52;24.70;48.90
66608;DHT22;53462;39.616;8.824;2023-03-23T11:34:29;24.90;48.70
66608;DHT22;53462;39.616;8.824;2023-03-23T11:39:59;24.20;47.30
66608;DHT22;53462;39.616;8.824;2023-03-23T11:42:34;24.20;49.10
66608;DHT22;53462;39.616;8.824;2023-03-23T11:50:48;24.50;47.40
66608;DHT22;53462;39.616;8.824;2023-03-23T11:58:34;24.30;47.10
66608;DHT22;53462;39.616;8.824;2023-03-23T12:03:55;24.40;45.90
66608;DHT22;53462;39.616;8.824;2023-03-23T12:09:32;24.60;44.70
66608;DHT22;53462;39.616;8.824;2023-03-23T12:12:40;25.00;44.00
66608;DHT22;53462;39.616;8.824;2023-03-23T12:15:19;24.90;45.70
66608;DHT22;53462;39.616;8.824;2023-03-23T12:20:40;24.80;45.90
66608;DHT22;53462;39.616;8.824;2023-03-23T12:23:53;24.40;45.60
66608;DHT22;53462;39.616;8.824;2023-03-23T12:26:17;24.30;47.60
66608;DHT22;53462;39.616;8.824;2023-03-23T12:28:55;24.00;45.80
66608;DHT22;53462;39.616;8.824;2023-03-23T12:31:43;23.50;48.30
66608;DHT22;53462;39.616;8.824;2023-03-23T12:37:35;24.50;45.00
66608;DHT22;53462;39.616;8.824;2023-03-23T12:40:06;23.30;45.40
66608;DHT22;53462;39.616;8.824;2023-03-23T12:43:05;24.60;45.20
66608;DHT22;53462;39.616;8.824;2023-03-23T12:46:00;25.10;42.60
66608;DHT22;53462;39.616;8.824;2023-03-23T12:48:39;25.00;42.50
66608;DHT22;53462;39.616;8.824;2023-03-23T12:53:52;25.10;42.10
66608;DHT22;53462;39.616;8.824;2023-03-23T12:56:35;25.50;43.10
66608;DHT22;53462;39.616;8.824;2023-03-23T12:59:23;25.70;40.40
66608;DHT22;53462;39.616;8.824;2023-03-23T13:02:02;25.80;40.70
66608;DHT22;53462;39.616;8.824;2023-03-23T13:04:37;25.90;38.80
66608;DHT22;53462;39.616;8.824;2023-03-23T13:07:09;25.20;39.40
66608;DHT22;53462;39.616;8.824;2023-03-23T13:09:57;24.70;42.50
66608;DHT22;53462;39.616;8.824;2023-03-23T13:12:26;25.60;41.70
66608;DHT22;53462;39.616;8.824;2023-03-23T13:17:46;24.70;41.80
66608;DHT22;53462;39.616;8.824;2023-03-23T13:23:20;24.30;46.70
66608;DHT22;53462;39.616;8.824;2023-03-23T13:26:08;25.10;44.90
66608;DHT22;53462;39.616;8.824;2023-03-23T13:29:05;25.20;43.90
66608;DHT22;53462;39.616;8.824;2023-03-23T13:31:38;24.20;44.90
66608;DHT22;53462;39.616;8.824;2023-03-23T13:36:44;25.00;44.90
66608;DHT22;53462;39.616;8.824;2023-03-23T13:39:37;24.80;44.90
66608;DHT22;53462;39.616;8.824;2023-03-23T13:47:22;24.80;44.80
66608;DHT22;53462;39.616;8.824;2023-03-23T13:52:46;24.80;44.80
66608;DHT22;53462;39.616;8.824;2023-03-23T13:55:42;24.50;45.30
66608;DHT22;53462;39.616;8.824;2023-03-23T13:58:22;24.60;44.90
66608;DHT22;53462;39.616;8.824;2023-03-23T14:03:41;24.00;45.60
66608;DHT22;53462;39.616;8.824;2023-03-23T14:06:13;24.00;46.30
66608;DHT22;53462;39.616;8.824;2023-03-23T14:09:36;24.00;45.80
66608;DHT22;53462;39.616;8.824;2023-03-23T14:12:05;24.20;44.80
66608;DHT22;53462;39.616;8.824;2023-03-23T14:14:41;24.00;44.50
66608;DHT22;53462;39.616;8.824;2023-03-23T14:17:17;23.60;44.90
66608;DHT22;53462;39.616;8.824;2023-03-23T14:19:54;23.70;45.20
66608;DHT22;53462;39.616;8.824;2023-03-23T14:22:34;23.80;45.10
66608;DHT22;53462;39.616;8.824;2023-03-23T14:25:16;23.70;45.30
66608;DHT22;53462;39.616;8.824;2023-03-23T14:27:42;23.70;44.40
66608;DHT22;53462;39.616;8.824;2023-03-23T14:30:20;23.70;45.00
66608;DHT22;53462;39.616;8.824;2023-03-23T14:32:47;23.70;45.30
66608;DHT22;53462;39.616;8.824;2023-03-23T14:35:26;23.10;45.00
66608;DHT22;53462;39.616;8.824;2023-03-23T14:37:54;23.20;45.20
66608;DHT22;53462;39.616;8.824;2023-03-23T14:40:20;23.10;44.70
66608;DHT22;53462;39.616;8.824;2023-03-23T14:42:47;23.20;44.50
66608;DHT22;53462;39.616;8.824;2023-03-23T14:45:16;22.80;45.20
66608;DHT22;53462;39.616;8.824;2023-03-23T14:52:58;23.20;45.30
66608;DHT22;53462;39.616;8.824;2023-03-23T14:55:25;22.80;44.20
66608;DHT22;53462;39.616;8.824;2023-03-23T14:57:54;22.40;45.40
66608;DHT22;53462;39.616;8.824;2023-03-23T15:00:24;22.70;45.70
66608;DHT22;53462;39.616;8.824;2023-03-23T15:02:55;22.70;46.30
66608;DHT22;53462;39.616;8.824;2023-03-23T15:05:29;22.40;45.10
66608;DHT22;53462;39.616;8.824;2023-03-23T15:08:02;22.20;46.70
66608;DHT22;53462;39.616;8.824;2023-03-23T15:10:29;22.10;46.60
66608;DHT22;53462;39.616;8.824;2023-03-23T15:12:55;22.20;46.80
66608;DHT22;53462;39.616;8.824;2023-03-23T15:15:30;22.10;46.10
66608;DHT22;53462;39.616;8.824;2023-03-23T15:17:56;21.90;46.60
66608;DHT22;53462;39.616;8.824;2023-03-23T15:20:26;21.80;46.20
66608;DHT22;53462;39.616;8.824;2023-03-23T15:22:53;21.60;46.30
66608;DHT22;53462;39.616;8.824;2023-03-23T15:25:28;21.30;47.30
66608;DHT22;53462;39.616;8.824;2023-03-23T15:28:09;21.00;46.50
66608;DHT22;53462;39.616;8.824;2023-03-23T15:30:53;21.00;46.90
66608;DHT22;53462;39.616;8.824;2023-03-23T15:33:20;20.80;49.10
66608;DHT22;53462;39.616;8.824;2023-03-23T15:35:56;21.00;50.20
66608;DHT22;53462;39.616;8.824;2023-03-23T15:38:29;20.90;50.40
66608;DHT22;53462;39.616;8.824;2023-03-23T15:40:59;20.90;50.00
66608;DHT22;53462;39.616;8.824;2023-03-23T15:43:36;20.80;51.30
66608;DHT22;53462;39.616;8.824;2023-03-23T15:49:07;20.70;52.80
66608;DHT22;53462;39.616;8.824;2023-03-23T15:51:33;20.40;54.40
66608;DHT22;53462;39.616;8.824;2023-03-23T15:54:00;20.60;54.50
66608;DHT22;53462;39.616;8.824;2023-03-23T15:56:27;20.90;53.40
66608;DHT22;53462;39.616;8.824;2023-03-23T15:58:56;20.40;53.70
66608;DHT22;53462;39.616;8.824;2023-03-23T16:01:25;20.20;54.50
66608;DHT22;53462;39.616;8.824;2023-03-23T16:06:27;20.20;56.50
66608;DHT22;53462;39.616;8.824;2023-03-23T16:08:54;20.00;56.50
66608;DHT22;53462;39.616;8.824;2023-03-23T16:11:22;20.00;56.70
66608;DHT22;53462;39.616;8.824;2023-03-23T16:13:49;20.10;56.30
66608;DHT22;53462;39.616;8.824;2023-03-23T16:16:27;20.10;56.00
66608;DHT22;53462;39.616;8.824;2023-03-23T16:18:53;19.70;56.90
66608;DHT22;53462;39.616;8.824;2023-03-23T16:21:20;19.70;58.70
66608;DHT22;53462;39.616;8.824;2023-03-23T16:23:46;19.50;60.40
66608;DHT22;53462;39.616;8.824;2023-03-23T16:26:14;19.30;61.50
66608;DHT22;53462;39.616;8.824;2023-03-23T16:28:40;19.20;60.50
66608;DHT22;53462;39.616;8.824;2023-03-23T16:31:07;19.00;61.90
66608;DHT22;53462;39.616;8.824;2023-03-23T16:33:33;18.90;63.50
66608;DHT22;53462;39.616;8.824;2023-03-23T16:35:58;19.00;65.50
66608;DHT22;53462;39.616;8.824;2023-03-23T16:38:25;18.70;65.90
66608;DHT22;53462;39.616;8.824;2023-03-23T16:40:51;18.70;66.60
66608;DHT22;53462;39.616;8.824;2023-03-23T16:43:17;18.70;67.80
66608;DHT22;53462;39.616;8.824;2023-03-23T16:45:44;18.60;67.40
66608;DHT22;53462;39.616;8.824;2023-03-23T16:48:12;18.60;67.60
66608;DHT22;53462;39.616;8.824;2023-03-23T16:50:39;18.20;69.50
66608;DHT22;53462;39.616;8.824;2023-03-23T16:53:06;18.20;69.90
66608;DHT22;53462;39.616;8.824;2023-03-23T16:55:33;18.20;70.10
66608;DHT22;53462;39.616;8.824;2023-03-23T16:57:59;18.10;70.20
66608;DHT22;53462;39.616;8.824;2023-03-23T17:00:25;17.80;71.10
66608;DHT22;53462;39.616;8.824;2023-03-23T17:02:53;17.50;73.00
66608;DHT22;53462;39.616;8.824;2023-03-23T17:05:23;17.30;73.40
66608;DHT22;53462;39.616;8.824;2023-03-23T17:07:49;17.10;75.20
66608;DHT22;53462;39.616;8.824;2023-03-23T17:10:16;17.00;76.10
66608;DHT22;53462;39.616;8.824;2023-03-23T17:12:42;16.90;77.50
66608;DHT22;53462;39.616;8.824;2023-03-23T17:15:10;16.60;79.30
66608;DHT22;53462;39.616;8.824;2023-03-23T17:17:36;16.50;81.00
66608;DHT22;53462;39.616;8.824;2023-03-23T17:20:03;16.60;82.10
66608;DHT22;53462;39.616;8.824;2023-03-23T17:22:29;16.60;82.50
66608;DHT22;53462;39.616;8.824;2023-03-23T17:24:55;16.60;82.90
66608;DHT22;53462;39.616;8.824;2023-03-23T17:27:22;16.30;83.80
66608;DHT22;53462;39.616;8.824;2023-03-23T17:29:48;16.10;85.40
66608;DHT22;53462;39.616;8.824;2023-03-23T17:32:14;16.10;86.50
66608;DHT22;53462;39.616;8.824;2023-03-23T17:34:41;16.20;87.10
66608;DHT22;53462;39.616;8.824;2023-03-23T17:37:07;16.20;87.10
66608;DHT22;53462;39.616;8.824;2023-03-23T17:39:33;16.00;87.10
66608;DHT22;53462;39.616;8.824;2023-03-23T17:42:00;15.70;88.20
66608;DHT22;53462;39.616;8.824;2023-03-23T17:44:27;15.60;89.60
66608;DHT22;53462;39.616;8.824;2023-03-23T17:46:53;15.60;90.10
66608;DHT22;53462;39.616;8.824;2023-03-23T17:49:22;15.50;90.60
66608;DHT22;53462;39.616;8.824;2023-03-23T17:51:48;15.40;91.00
66608;DHT22;53462;39.616;8.824;2023-03-23T17:54:14;15.40;91.20